createdAt,value
2022-10-26T00:00:05.867Z,7.15
2022-10-26T00:01:05.934Z,7.16
2022-10-26T00:02:06.198Z,7.20
2022-10-26T00:03:05.810Z,7.20
2022-10-26T00:04:05.787Z,7.23
2022-10-26T00:05:05.903Z,7.23
2022-10-26T00:06:05.760Z,7.23
2022-10-26T00:07:05.771Z,7.24
2022-10-26T00:08:06.198Z,7.24
2022-10-26T00:09:05.791Z,7.25
2022-10-26T00:10:06.195Z,7.30
2022-10-26T00:11:06.303Z,7.31
2022-10-26T00:12:05.719Z,7.31
2022-10-26T00:13:05.727Z,7.32
2022-10-26T00:14:05.679Z,7.32
2022-10-26T00:15:05.734Z,7.34
2022-10-26T00:16:05.649Z,7.32
2022-10-26T00:17:05.670Z,7.32
2022-10-26T00:18:05.630Z,7.32
2022-10-26T00:19:06.348Z,7.34
2022-10-26T00:20:05.608Z,7.35
2022-10-26T00:21:06.071Z,7.35
2022-10-26T00:22:05.626Z,7.37
2022-10-26T00:23:05.603Z,7.37
2022-10-26T00:24:06.227Z,7.37
2022-10-26T00:25:06.261Z,7.39
2022-10-26T00:26:05.538Z,7.40
2022-10-26T00:27:05.564Z,7.42
2022-10-26T00:28:05.536Z,7.42
2022-10-26T00:29:05.531Z,7.42
2022-10-26T00:30:06.339Z,7.43
2022-10-26T00:31:05.521Z,7.43
2022-10-26T00:32:05.525Z,7.42
2022-10-26T00:33:05.491Z,7.43
2022-10-26T00:34:05.467Z,7.45
2022-10-26T00:35:15.824Z,7.43
2022-10-26T00:36:06.474Z,7.45
2022-10-26T00:37:05.454Z,7.43
2022-10-26T00:38:05.436Z,7.43
2022-10-26T00:39:05.419Z,7.43
2022-10-26T00:40:05.396Z,7.43
2022-10-26T00:41:05.506Z,7.45
2022-10-26T00:42:05.356Z,7.46
2022-10-26T00:43:05.358Z,7.46
2022-10-26T00:44:05.336Z,7.46
2022-10-26T00:45:05.535Z,7.48
2022-10-26T00:46:05.616Z,7.49
2022-10-26T00:47:05.328Z,7.50
2022-10-26T00:48:05.296Z,7.52
2022-10-26T00:49:05.380Z,7.53
2022-10-26T00:50:05.348Z,7.53
2022-10-26T00:51:05.357Z,7.57
2022-10-26T00:52:05.274Z,7.57
2022-10-26T00:53:05.266Z,7.60
2022-10-26T00:54:05.249Z,7.58
2022-10-26T00:55:05.307Z,7.60
2022-10-26T00:56:05.216Z,7.60
2022-10-26T00:57:05.239Z,7.61
2022-10-26T00:58:05.202Z,7.63
2022-10-26T00:59:05.195Z,7.63
2022-10-26T01:00:05.204Z,7.63
2022-10-26T01:01:05.249Z,7.64
2022-10-26T01:02:05.143Z,7.63
2022-10-26T01:03:05.145Z,7.64
2022-10-26T01:04:05.212Z,7.64
2022-10-26T01:05:05.149Z,7.68
2022-10-26T01:06:05.106Z,7.69
2022-10-26T01:07:05.105Z,7.71
2022-10-26T01:08:05.155Z,7.74
2022-10-26T01:09:05.079Z,7.77
2022-10-26T01:10:05.177Z,7.79
2022-10-26T01:11:05.186Z,7.80
2022-10-26T01:12:05.187Z,7.82
2022-10-26T01:13:05.095Z,7.85
2022-10-26T01:14:05.023Z,7.87
2022-10-26T01:15:05.017Z,7.89
2022-10-26T01:16:04.994Z,7.89
2022-10-26T01:17:05.028Z,7.90
2022-10-26T01:18:04.973Z,7.90
2022-10-26T01:19:05.036Z,7.93
2022-10-26T01:20:04.954Z,7.95
2022-10-26T01:21:04.954Z,7.95
2022-10-26T01:22:04.955Z,7.97
2022-10-26T01:23:04.925Z,7.98
2022-10-26T01:24:04.902Z,8.00
2022-10-26T01:25:05.088Z,8.01
2022-10-26T01:26:04.892Z,8.02
2022-10-26T01:27:04.904Z,8.04
2022-10-26T01:28:04.881Z,8.05
2022-10-26T01:29:04.895Z,8.07
2022-10-26T01:30:04.834Z,8.07
2022-10-26T01:31:04.844Z,8.08
2022-10-26T01:32:04.824Z,8.10
2022-10-26T01:33:04.853Z,8.10
2022-10-26T01:34:05.166Z,8.12
2022-10-26T01:35:05.164Z,8.12
2022-10-26T01:36:04.781Z,8.15
2022-10-26T01:37:04.794Z,8.18
2022-10-26T01:38:04.751Z,8.19
2022-10-26T01:39:04.745Z,8.19
2022-10-26T01:40:04.740Z,8.22
2022-10-26T01:41:05.292Z,8.25
2022-10-26T01:42:04.704Z,8.26
2022-10-26T01:43:04.766Z,8.30
2022-10-26T01:44:04.750Z,8.33
2022-10-26T01:45:04.684Z,8.33
2022-10-26T01:46:04.665Z,8.33
2022-10-26T01:47:04.929Z,8.30
2022-10-26T01:48:04.646Z,8.30
2022-10-26T01:49:04.653Z,8.30
2022-10-26T01:50:04.654Z,8.29
2022-10-26T01:51:04.622Z,8.30
2022-10-26T01:52:04.752Z,8.29
2022-10-26T01:53:04.809Z,8.30
2022-10-26T01:54:04.874Z,8.30
2022-10-26T01:55:04.676Z,8.30
2022-10-26T01:56:04.564Z,8.30
2022-10-26T01:57:04.572Z,8.30
2022-10-26T01:58:04.536Z,8.30
2022-10-26T01:59:04.536Z,8.33
2022-10-26T02:00:04.522Z,8.34
2022-10-26T02:01:04.560Z,8.34
2022-10-26T02:02:04.493Z,8.34
2022-10-26T02:03:04.500Z,8.34
2022-10-26T02:04:04.521Z,8.36
2022-10-26T02:05:04.632Z,8.34
2022-10-26T02:06:04.469Z,8.36
2022-10-26T02:07:04.474Z,8.37
2022-10-26T02:08:04.424Z,8.36
2022-10-26T02:09:04.434Z,8.36
2022-10-26T02:10:04.670Z,8.36
2022-10-26T02:11:04.392Z,8.36
2022-10-26T02:12:04.375Z,8.37
2022-10-26T02:13:04.692Z,8.37
2022-10-26T02:14:04.757Z,8.38
2022-10-26T02:15:04.460Z,8.40
2022-10-26T02:16:04.342Z,8.40
2022-10-26T02:17:04.350Z,8.41
2022-10-26T02:18:04.315Z,8.41
2022-10-26T02:19:04.302Z,8.41
2022-10-26T02:20:04.287Z,8.40
2022-10-26T02:21:04.282Z,8.40
2022-10-26T02:22:04.259Z,8.43
2022-10-26T02:23:04.276Z,8.44
2022-10-26T02:24:04.355Z,8.45
2022-10-26T02:25:04.568Z,8.47
2022-10-26T02:26:04.287Z,8.48
2022-10-26T02:27:04.213Z,8.52
2022-10-26T02:28:04.201Z,8.53
2022-10-26T02:29:04.206Z,8.55
2022-10-26T02:30:04.398Z,8.56
2022-10-26T02:31:04.173Z,8.58
2022-10-26T02:32:04.182Z,8.61
2022-10-26T02:33:04.213Z,8.63
2022-10-26T02:34:04.153Z,8.62
2022-10-26T02:35:04.159Z,8.63
2022-10-26T02:36:04.151Z,8.68
2022-10-26T02:37:04.113Z,8.68
2022-10-26T02:38:04.143Z,8.70
2022-10-26T02:39:04.171Z,8.71
2022-10-26T02:40:04.309Z,8.71
2022-10-26T02:41:04.061Z,8.73
2022-10-26T02:42:04.038Z,8.73
2022-10-26T02:43:04.379Z,8.76
2022-10-26T02:44:04.020Z,8.74
2022-10-26T02:45:04.380Z,8.74
2022-10-26T02:46:03.993Z,8.76
2022-10-26T02:47:03.991Z,8.76
2022-10-26T02:48:04.021Z,8.76
2022-10-26T02:49:03.969Z,8.77
2022-10-26T02:50:03.964Z,8.79
2022-10-26T02:51:03.981Z,8.81
2022-10-26T02:52:03.937Z,8.81
2022-10-26T02:53:03.910Z,8.83
2022-10-26T02:54:04.496Z,8.86
2022-10-26T02:55:03.957Z,8.84
2022-10-26T02:56:03.968Z,8.86
2022-10-26T02:57:03.904Z,8.86
2022-10-26T02:58:03.890Z,8.87
2022-10-26T02:59:03.842Z,8.89
2022-10-26T03:00:04.237Z,8.89
2022-10-26T03:01:03.919Z,8.91
2022-10-26T03:02:03.849Z,8.92
2022-10-26T03:03:03.819Z,8.92
2022-10-26T03:04:03.878Z,8.94
2022-10-26T03:05:03.920Z,8.95
2022-10-26T03:06:03.781Z,8.95
2022-10-26T03:07:03.755Z,8.96
2022-10-26T03:08:03.752Z,8.99
2022-10-26T03:09:03.728Z,9.01
2022-10-26T03:10:03.776Z,9.04
2022-10-26T03:11:04.071Z,9.04
2022-10-26T03:12:03.739Z,9.05
2022-10-26T03:13:03.698Z,9.10
2022-10-26T03:14:03.827Z,9.13
2022-10-26T03:15:03.708Z,9.17
2022-10-26T03:16:03.907Z,9.17
2022-10-26T03:17:03.909Z,9.20
2022-10-26T03:18:03.647Z,9.21
2022-10-26T03:19:03.731Z,9.23
2022-10-26T03:20:03.666Z,9.23
2022-10-26T03:21:03.612Z,9.24
2022-10-26T03:22:03.628Z,9.23
2022-10-26T03:23:03.585Z,9.24
2022-10-26T03:24:03.586Z,9.23
2022-10-26T03:25:03.598Z,9.23
2022-10-26T03:26:03.994Z,9.21
2022-10-26T03:27:03.683Z,9.23
2022-10-26T03:28:04.194Z,9.23
2022-10-26T03:29:03.525Z,9.21
2022-10-26T03:30:03.519Z,9.20
2022-10-26T03:31:03.499Z,9.21
2022-10-26T03:32:03.496Z,9.21
2022-10-26T03:33:03.631Z,9.20
2022-10-26T03:34:03.646Z,9.21
2022-10-26T03:35:03.717Z,9.20
2022-10-26T03:36:03.633Z,9.20
2022-10-26T03:37:03.628Z,9.20
2022-10-26T03:38:03.853Z,9.23
2022-10-26T03:39:03.846Z,9.23
2022-10-26T03:40:03.967Z,9.23
2022-10-26T03:41:03.739Z,9.26
2022-10-26T03:42:03.380Z,9.24
2022-10-26T03:43:03.346Z,9.28
2022-10-26T03:44:03.487Z,9.29
2022-10-26T03:45:03.486Z,9.29
2022-10-26T03:46:03.328Z,9.29
2022-10-26T03:47:03.319Z,9.29
2022-10-26T03:48:03.315Z,9.29
2022-10-26T03:49:03.306Z,9.29
2022-10-26T03:50:03.427Z,9.29
2022-10-26T03:51:03.431Z,9.29
2022-10-26T03:52:03.286Z,9.31
2022-10-26T03:53:03.246Z,9.29
2022-10-26T03:54:03.277Z,9.28
2022-10-26T03:55:03.265Z,9.29
2022-10-26T03:56:03.265Z,9.28
2022-10-26T03:57:03.353Z,9.29
2022-10-26T03:58:03.196Z,9.28
2022-10-26T03:59:03.271Z,9.28
2022-10-26T04:00:04.788Z,9.29
2022-10-26T04:01:03.237Z,9.31
2022-10-26T04:02:03.157Z,9.32
2022-10-26T04:03:03.155Z,9.31
2022-10-26T04:04:03.179Z,9.31
2022-10-26T04:05:03.127Z,9.32
2022-10-26T04:06:03.130Z,9.32
2022-10-26T04:07:03.128Z,9.32
2022-10-26T04:08:03.180Z,9.32
2022-10-26T04:09:03.074Z,9.33
2022-10-26T04:10:03.262Z,9.33
2022-10-26T04:11:04.613Z,9.35
2022-10-26T04:12:03.100Z,9.33
2022-10-26T04:13:03.166Z,9.35
2022-10-26T04:14:03.027Z,9.35
2022-10-26T04:16:03.089Z,9.36
2022-10-26T04:17:03.086Z,9.36
2022-10-26T04:18:03.219Z,9.36
2022-10-26T04:19:03.205Z,9.40
2022-10-26T04:20:03.215Z,9.46
2022-10-26T04:21:02.936Z,9.46
2022-10-26T04:22:02.925Z,9.43
2022-10-26T04:23:02.899Z,9.43
2022-10-26T04:24:02.940Z,9.42
2022-10-26T04:25:02.944Z,9.40
2022-10-26T04:26:02.934Z,9.39
2022-10-26T04:27:03.059Z,9.39
2022-10-26T04:28:02.868Z,9.39
2022-10-26T04:29:02.857Z,9.38
2022-10-26T04:30:03.191Z,9.36
2022-10-26T04:31:02.837Z,9.38
2022-10-26T04:32:02.837Z,9.36
2022-10-26T04:33:02.826Z,9.35
2022-10-26T04:34:02.808Z,9.36
2022-10-26T04:35:03.280Z,9.35
2022-10-26T04:36:03.235Z,9.36
2022-10-26T04:37:03.241Z,9.38
2022-10-26T04:38:02.834Z,9.36
2022-10-26T04:39:02.766Z,9.36
2022-10-26T04:40:03.301Z,9.35
2022-10-26T04:41:03.268Z,9.33
2022-10-26T04:42:02.807Z,9.38
2022-10-26T04:43:02.695Z,9.36
2022-10-26T04:44:02.684Z,9.38
2022-10-26T04:45:02.874Z,9.38
2022-10-26T04:46:02.891Z,9.38
2022-10-26T04:47:02.635Z,9.36
2022-10-26T04:48:02.645Z,9.38
2022-10-26T04:49:02.616Z,9.39
2022-10-26T04:50:02.828Z,9.39
2022-10-26T04:51:03.115Z,9.39
2022-10-26T04:52:03.132Z,9.42
2022-10-26T04:53:02.568Z,9.43
2022-10-26T04:54:02.583Z,9.43
2022-10-26T04:55:02.566Z,9.43
2022-10-26T04:56:02.584Z,9.46
2022-10-26T04:57:02.864Z,9.47
2022-10-26T04:58:02.711Z,9.46
2022-10-26T04:59:02.566Z,9.48
2022-10-26T05:00:02.584Z,9.48
2022-10-26T05:01:02.537Z,9.50
2022-10-26T05:02:02.683Z,9.50
2022-10-26T05:03:02.624Z,9.53
2022-10-26T05:04:02.486Z,9.53
2022-10-26T05:06:02.445Z,9.53
2022-10-26T05:07:02.524Z,9.54
2022-10-26T05:08:02.642Z,9.53
2022-10-26T05:09:02.937Z,9.53
2022-10-26T05:10:02.446Z,9.54
2022-10-26T05:11:02.375Z,9.53
2022-10-26T05:12:02.999Z,9.54
2022-10-26T05:13:03.082Z,9.53
2022-10-26T05:14:02.454Z,9.53
2022-10-26T05:15:06.344Z,9.54
2022-10-26T05:16:04.164Z,9.56
2022-10-26T05:17:02.311Z,9.57
2022-10-26T05:18:03.193Z,9.58
2022-10-26T05:19:02.312Z,9.60
2022-10-26T05:20:02.309Z,9.64
2022-10-26T05:21:02.263Z,9.65
2022-10-26T05:22:02.267Z,9.65
2022-10-26T05:23:02.248Z,9.68
2022-10-26T05:24:02.247Z,9.69
2022-10-26T05:25:02.243Z,9.69
2022-10-26T05:26:02.235Z,9.69
2022-10-26T05:27:02.205Z,9.69
2022-10-26T05:28:02.217Z,9.71
2022-10-26T05:29:02.164Z,9.72
2022-10-26T05:30:02.326Z,9.74
2022-10-26T05:31:02.167Z,9.72
2022-10-26T05:32:02.164Z,9.75
2022-10-26T05:33:03.009Z,9.75
2022-10-26T05:34:02.413Z,9.78
2022-10-26T05:35:02.120Z,9.79
2022-10-26T05:36:02.115Z,9.83
2022-10-26T05:37:02.117Z,9.86
2022-10-26T05:38:02.140Z,9.89
2022-10-26T05:39:02.123Z,9.89
2022-10-26T05:40:02.245Z,9.91
2022-10-26T05:41:02.254Z,9.91
2022-10-26T05:42:02.044Z,9.91
2022-10-26T05:43:02.024Z,9.90
2022-10-26T05:44:02.074Z,9.89
2022-10-26T05:45:02.187Z,9.89
2022-10-26T05:46:02.283Z,9.87
2022-10-26T05:47:01.984Z,9.87
2022-10-26T05:48:03.153Z,9.89
2022-10-26T05:49:02.021Z,9.89
2022-10-26T05:50:02.206Z,9.89
2022-10-26T05:51:01.935Z,9.89
2022-10-26T05:52:01.981Z,9.91
2022-10-26T05:53:01.895Z,9.93
2022-10-26T05:54:01.921Z,9.93
2022-10-26T05:55:01.954Z,9.94
2022-10-26T05:56:04.048Z,9.97
2022-10-26T05:57:01.874Z,9.97
2022-10-26T05:58:02.061Z,10.01
2022-10-26T05:59:02.059Z,10.02
2022-10-26T06:00:02.171Z,10.02
2022-10-26T06:01:01.824Z,10.05
2022-10-26T06:02:01.927Z,10.07
2022-10-26T06:03:01.805Z,10.07
2022-10-26T06:04:01.790Z,10.08
2022-10-26T06:05:01.767Z,10.08
2022-10-26T06:06:04.001Z,10.09
2022-10-26T06:07:02.225Z,10.09
2022-10-26T06:08:01.824Z,10.11
2022-10-26T06:09:01.839Z,10.12
2022-10-26T06:10:01.739Z,10.11
2022-10-26T06:11:01.858Z,10.12
2022-10-26T06:12:01.744Z,10.12
2022-10-26T06:13:01.742Z,10.11
2022-10-26T06:14:01.695Z,10.14
2022-10-26T06:15:01.678Z,10.12
2022-10-26T06:16:01.660Z,10.11
2022-10-26T06:17:01.772Z,10.14
2022-10-26T06:18:01.793Z,10.15
2022-10-26T06:19:02.277Z,10.18
2022-10-26T06:20:01.695Z,10.20
2022-10-26T06:21:01.588Z,10.23
2022-10-26T06:22:01.581Z,10.26
2022-10-26T06:23:01.584Z,10.27
2022-10-26T06:24:01.574Z,10.27
2022-10-26T06:25:01.543Z,10.29
2022-10-26T06:26:01.537Z,10.27
2022-10-26T06:27:01.519Z,10.29
2022-10-26T06:28:01.535Z,10.30
2022-10-26T06:29:01.495Z,10.32
2022-10-26T06:30:01.567Z,10.32
2022-10-26T06:31:01.595Z,10.33
2022-10-26T06:32:01.471Z,10.34
2022-10-26T06:33:11.450Z,10.36
2022-10-26T06:34:02.712Z,10.36
2022-10-26T06:35:06.217Z,10.38
2022-10-26T06:36:02.539Z,10.41
2022-10-26T06:37:01.411Z,10.44
2022-10-26T06:38:01.930Z,10.45
2022-10-26T06:39:01.936Z,10.48
2022-10-26T06:40:02.038Z,10.51
2022-10-26T06:41:01.839Z,10.52
2022-10-26T06:42:01.848Z,10.56
2022-10-26T06:43:01.342Z,10.60
2022-10-26T06:44:01.343Z,10.61
2022-10-26T06:45:01.341Z,10.63
2022-10-26T06:46:01.315Z,10.63
2022-10-26T06:47:01.297Z,10.66
2022-10-26T06:48:01.312Z,10.68
2022-10-26T06:49:01.323Z,10.68
2022-10-26T06:50:01.269Z,10.71
2022-10-26T06:51:01.259Z,10.73
2022-10-26T06:52:01.290Z,10.74
2022-10-26T06:53:01.315Z,10.76
2022-10-26T06:54:01.231Z,10.78
2022-10-26T06:55:01.192Z,10.79
2022-10-26T06:56:01.200Z,10.81
2022-10-26T06:57:01.179Z,10.82
2022-10-26T06:58:01.182Z,10.85
2022-10-26T06:59:03.464Z,10.88
2022-10-26T07:00:02.489Z,10.89
2022-10-26T07:01:01.126Z,10.91
2022-10-26T07:02:04.204Z,10.94
2022-10-26T07:03:02.221Z,10.96
2022-10-26T07:04:01.118Z,11.00
2022-10-26T07:05:01.108Z,11.03
2022-10-26T07:06:01.077Z,11.04
2022-10-26T07:07:01.206Z,11.04
2022-10-26T07:08:01.053Z,11.07
2022-10-26T07:09:01.240Z,11.09
2022-10-26T07:10:01.031Z,11.10
2022-10-26T07:11:01.039Z,11.11
2022-10-26T07:12:01.000Z,11.11
2022-10-26T07:13:01.019Z,11.15
2022-10-26T07:14:01.149Z,11.15
2022-10-26T07:15:01.082Z,11.15
2022-10-26T07:16:00.959Z,11.17
2022-10-26T07:17:00.969Z,11.17
2022-10-26T07:18:00.934Z,11.17
2022-10-26T07:19:01.324Z,11.17
2022-10-26T07:20:01.196Z,11.17
2022-10-26T07:21:01.100Z,11.17
2022-10-26T07:22:00.901Z,11.17
2022-10-26T07:23:00.926Z,11.19
2022-10-26T07:24:00.873Z,11.19
2022-10-26T07:25:03.058Z,11.21
2022-10-26T07:26:00.843Z,11.21
2022-10-26T07:27:00.852Z,11.24
2022-10-26T07:28:00.846Z,11.22
2022-10-26T07:29:00.843Z,11.24
2022-10-26T07:30:00.804Z,11.25
2022-10-26T07:31:00.853Z,11.27
2022-10-26T07:32:00.790Z,11.28
2022-10-26T07:33:00.790Z,11.28
2022-10-26T07:34:00.770Z,11.32
2022-10-26T07:35:00.760Z,11.29
2022-10-26T07:36:00.994Z,11.29
2022-10-26T07:37:00.769Z,11.32
2022-10-26T07:38:00.910Z,11.32
2022-10-26T07:39:00.793Z,11.35
2022-10-26T07:40:05.597Z,11.35
2022-10-26T07:41:01.754Z,11.35
2022-10-26T07:42:00.744Z,11.35
2022-10-26T07:43:00.668Z,11.37
2022-10-26T07:44:00.646Z,11.39
2022-10-26T07:45:00.666Z,11.42
2022-10-26T07:46:00.639Z,11.43
2022-10-26T07:47:00.666Z,11.44
2022-10-26T07:48:00.624Z,11.46
2022-10-26T07:49:00.605Z,11.47
2022-10-26T07:50:00.592Z,11.51
2022-10-26T07:51:02.844Z,11.52
2022-10-26T07:52:00.575Z,11.55
2022-10-26T07:53:00.600Z,11.58
2022-10-26T07:54:00.531Z,11.60
2022-10-26T07:55:00.540Z,11.61
2022-10-26T07:56:00.529Z,11.61
2022-10-26T07:57:00.553Z,11.62
2022-10-26T07:58:01.843Z,11.61
2022-10-26T07:59:00.497Z,11.61
2022-10-26T08:00:00.465Z,11.64
2022-10-26T08:01:00.520Z,11.67
2022-10-26T08:02:00.533Z,11.69
2022-10-26T08:03:00.468Z,11.73
2022-10-26T08:04:00.440Z,11.76
2022-10-26T08:05:00.427Z,11.80
2022-10-26T08:06:00.421Z,11.88
2022-10-26T08:07:00.489Z,11.90
2022-10-26T08:08:00.391Z,11.95
2022-10-26T08:09:00.600Z,11.99
2022-10-26T08:10:00.377Z,12.04
2022-10-26T08:11:00.360Z,12.07
2022-10-26T08:12:00.341Z,12.12
2022-10-26T08:13:00.347Z,12.16
2022-10-26T08:14:00.342Z,12.20
2022-10-26T08:15:00.337Z,12.23
2022-10-26T08:16:00.325Z,12.27
2022-10-26T08:17:00.358Z,12.31
2022-10-26T08:18:00.296Z,12.35
2022-10-26T08:19:00.271Z,12.39
2022-10-26T08:20:00.287Z,12.42
2022-10-26T08:21:10.120Z,12.46
2022-10-26T08:22:01.377Z,12.46
2022-10-26T08:23:00.292Z,12.49
2022-10-26T08:24:00.283Z,12.50
2022-10-26T08:25:00.200Z,12.52
2022-10-26T08:26:00.189Z,12.57
2022-10-26T08:27:00.207Z,12.59
2022-10-26T08:28:00.183Z,12.62
2022-10-26T08:29:00.154Z,12.65
2022-10-26T08:30:00.142Z,12.68
2022-10-26T08:31:00.141Z,12.71
2022-10-26T08:32:00.119Z,12.72
2022-10-26T08:33:00.120Z,12.74
2022-10-26T08:34:00.114Z,12.78
2022-10-26T08:35:00.097Z,12.83
2022-10-26T08:36:00.083Z,12.87
2022-10-26T08:37:00.078Z,12.93
2022-10-26T08:38:00.076Z,12.95
2022-10-26T08:40:02.962Z,13.08
2022-10-26T08:41:00.029Z,13.15
2022-10-26T08:42:00.379Z,13.22
2022-10-26T08:43:00.247Z,13.29
2022-10-26T08:43:59.983Z,13.45
2022-10-26T08:44:59.989Z,13.60
2022-10-26T08:45:59.984Z,13.77
2022-10-26T08:46:59.968Z,13.92
2022-10-26T08:48:00.302Z,14.10
2022-10-26T08:48:59.940Z,14.22
2022-10-26T08:49:59.918Z,14.37
2022-10-26T08:50:59.910Z,14.51
2022-10-26T08:51:59.903Z,14.60
2022-10-26T08:52:59.918Z,14.64
2022-10-26T08:53:59.871Z,14.75
2022-10-26T08:54:59.888Z,14.81
2022-10-26T08:55:59.871Z,14.89
2022-10-26T08:56:59.850Z,14.96
2022-10-26T08:57:59.820Z,15.03
2022-10-26T08:58:59.818Z,15.06
2022-10-26T08:59:59.826Z,15.11
2022-10-26T09:00:59.869Z,15.07
2022-10-26T09:01:59.819Z,15.13
2022-10-26T09:03:00.010Z,15.20
2022-10-26T09:04:59.768Z,15.36
2022-10-26T09:05:59.739Z,15.44
2022-10-26T09:07:00.615Z,15.50
2022-10-26T09:07:59.710Z,15.60
2022-10-26T09:08:59.708Z,15.68
2022-10-26T09:09:59.701Z,15.76
2022-10-26T09:10:59.679Z,15.84
2022-10-26T09:11:59.671Z,15.90
2022-10-26T09:12:59.717Z,15.93
2022-10-26T09:14:00.009Z,15.93
2022-10-26T09:14:59.660Z,15.97
2022-10-26T09:15:59.762Z,16.02
2022-10-26T09:16:59.619Z,16.07
2022-10-26T09:17:59.599Z,16.09
2022-10-26T09:19:01.865Z,16.12
2022-10-26T09:19:59.593Z,16.23
2022-10-26T09:20:59.607Z,16.24
2022-10-26T09:21:59.880Z,16.27
2022-10-26T09:23:00.303Z,16.33
2022-10-26T09:23:59.658Z,16.39
2022-10-26T09:25:02.871Z,16.43
2022-10-26T09:26:01.031Z,16.49
2022-10-26T09:26:59.561Z,16.57
2022-10-26T09:27:59.517Z,16.63
2022-10-26T09:28:59.798Z,16.66
2022-10-26T09:29:59.469Z,16.68
2022-10-26T09:30:59.477Z,16.76
2022-10-26T09:31:59.458Z,16.82
2022-10-26T09:32:59.460Z,16.85
2022-10-26T09:33:59.418Z,16.88
2022-10-26T09:34:59.520Z,16.91
2022-10-26T09:35:59.496Z,16.94
2022-10-26T09:36:59.908Z,16.98
2022-10-26T09:37:59.382Z,17.03
2022-10-26T09:38:59.384Z,17.11
2022-10-26T09:39:59.360Z,17.16
2022-10-26T09:40:59.390Z,17.19
2022-10-26T09:42:00.026Z,17.23
2022-10-26T09:42:59.344Z,17.25
2022-10-26T09:43:59.324Z,17.30
2022-10-26T09:44:59.319Z,17.36
2022-10-26T09:45:59.286Z,17.41
2022-10-26T09:46:59.316Z,17.33
2022-10-26T09:48:02.685Z,17.28
2022-10-26T09:49:00.376Z,17.33
2022-10-26T09:49:59.238Z,17.37
2022-10-26T09:51:01.982Z,17.41
2022-10-26T09:52:00.318Z,17.51
2022-10-26T09:52:59.252Z,17.59
2022-10-26T09:53:59.198Z,17.64
2022-10-26T09:54:59.230Z,17.68
2022-10-26T09:55:59.175Z,17.70
2022-10-26T09:56:59.190Z,17.70
2022-10-26T09:57:59.170Z,17.68
2022-10-26T09:58:59.175Z,17.56
2022-10-26T09:59:59.131Z,17.48
2022-10-26T10:00:59.236Z,17.41
2022-10-26T10:01:59.296Z,17.34
2022-10-26T10:02:59.258Z,17.23
2022-10-26T10:03:59.154Z,17.18
2022-10-26T10:04:59.162Z,17.07
2022-10-26T10:05:59.084Z,17.00
2022-10-26T10:06:59.100Z,16.94
2022-10-26T10:07:59.081Z,16.89
2022-10-26T10:08:59.055Z,16.82
2022-10-26T10:09:59.180Z,16.71
2022-10-26T10:10:59.010Z,16.66
2022-10-26T10:11:59.300Z,16.64
2022-10-26T10:12:59.331Z,16.57
2022-10-26T10:13:59.437Z,16.50
2022-10-26T10:14:59.331Z,16.53
2022-10-26T10:15:59.140Z,16.50
2022-10-26T10:16:59.058Z,16.46
2022-10-26T10:17:59.317Z,16.45
2022-10-26T10:18:58.962Z,16.48
2022-10-26T10:19:58.920Z,16.63
2022-10-26T10:20:58.933Z,16.71
2022-10-26T10:21:58.892Z,16.78
2022-10-26T10:22:58.918Z,16.88
2022-10-26T10:23:58.996Z,17.00
2022-10-26T10:24:59.265Z,17.11
2022-10-26T10:25:59.125Z,17.23
2022-10-26T10:26:59.113Z,17.31
2022-10-26T10:27:58.826Z,17.44
2022-10-26T10:28:58.844Z,17.54
2022-10-26T10:30:03.067Z,17.64
2022-10-26T10:30:59.833Z,17.75
2022-10-26T10:31:58.835Z,17.86
2022-10-26T10:32:58.783Z,17.90
2022-10-26T10:33:58.769Z,18.00
2022-10-26T10:34:58.766Z,18.00
2022-10-26T10:35:58.752Z,17.99
2022-10-26T10:36:58.970Z,17.99
2022-10-26T10:37:58.712Z,18.03
2022-10-26T10:38:58.711Z,18.11
2022-10-26T10:39:58.705Z,18.14
2022-10-26T10:40:58.691Z,18.23
2022-10-26T10:41:58.708Z,18.32
2022-10-26T10:42:58.814Z,18.29
2022-10-26T10:43:58.922Z,18.32
2022-10-26T10:44:58.939Z,18.36
2022-10-26T10:45:59.728Z,18.33
2022-10-26T10:46:58.646Z,18.37
2022-10-26T10:47:58.750Z,18.35
2022-10-26T10:48:58.615Z,18.41
2022-10-26T10:49:58.585Z,18.39
2022-10-26T10:50:58.590Z,18.30
2022-10-26T10:51:58.575Z,18.33
2022-10-26T10:52:58.563Z,18.35
2022-10-26T10:53:58.992Z,18.35
2022-10-26T10:54:58.564Z,18.44
2022-10-26T10:55:58.539Z,18.44
2022-10-26T10:56:58.522Z,18.35
2022-10-26T10:57:58.514Z,18.27
2022-10-26T10:58:59.244Z,18.20
2022-10-26T10:59:58.464Z,18.26
2022-10-26T11:00:58.484Z,18.35
2022-10-26T11:01:58.820Z,18.42
2022-10-26T11:02:58.454Z,18.48
2022-10-26T11:03:58.419Z,18.58
2022-10-26T11:04:58.452Z,18.62
2022-10-26T11:05:58.859Z,18.70
2022-10-26T11:06:58.990Z,18.75
2022-10-26T11:07:58.383Z,18.70
2022-10-26T11:08:58.994Z,18.67
2022-10-26T11:09:59.103Z,18.63
2022-10-26T11:10:58.362Z,18.57
2022-10-26T11:11:58.331Z,18.44
2022-10-26T11:12:58.376Z,18.32
2022-10-26T11:13:58.315Z,18.20
2022-10-26T11:14:58.359Z,18.11
2022-10-26T11:15:58.419Z,18.12
2022-10-26T11:16:58.290Z,18.11
2022-10-26T11:17:58.255Z,18.05
2022-10-26T11:18:58.263Z,17.96
2022-10-26T11:19:58.254Z,17.93
2022-10-26T11:21:58.223Z,17.86
2022-10-26T11:22:58.247Z,17.86
2022-10-26T11:23:58.214Z,17.84
2022-10-26T11:24:58.328Z,17.82
2022-10-26T11:25:58.294Z,17.79
2022-10-26T11:26:58.291Z,17.78
2022-10-26T11:27:58.171Z,17.79
2022-10-26T11:28:58.133Z,17.82
2022-10-26T11:29:58.152Z,17.84
2022-10-26T11:30:58.113Z,17.86
2022-10-26T11:31:58.334Z,17.84
2022-10-26T11:32:58.114Z,17.84
2022-10-26T11:34:58.077Z,17.89
2022-10-26T11:35:58.063Z,17.93
2022-10-26T11:36:58.048Z,17.96
2022-10-26T11:37:58.295Z,17.96
2022-10-26T11:38:59.243Z,18.00
2022-10-26T11:39:58.029Z,18.03
2022-10-26T11:40:57.995Z,17.99
2022-10-26T11:41:58.015Z,18.00
2022-10-26T11:42:58.208Z,18.02
2022-10-26T11:43:57.977Z,18.00
2022-10-26T11:44:58.013Z,18.02
2022-10-26T11:46:58.022Z,18.05
2022-10-26T11:47:58.050Z,18.05
2022-10-26T11:48:57.895Z,18.11
2022-10-26T11:49:57.910Z,18.14
2022-10-26T11:50:57.897Z,18.14
2022-10-26T11:51:57.884Z,18.10
2022-10-26T11:52:57.857Z,18.10
2022-10-26T11:53:58.090Z,18.21
2022-10-26T11:54:57.845Z,18.33
2022-10-26T11:55:57.842Z,18.39
2022-10-26T11:56:57.847Z,18.47
2022-10-26T11:57:58.101Z,18.57
2022-10-26T11:58:58.127Z,18.69
2022-10-26T11:59:58.119Z,18.75
2022-10-26T12:00:57.774Z,18.78
2022-10-26T12:01:57.775Z,18.80
2022-10-26T12:02:57.779Z,18.82
2022-10-26T12:03:57.754Z,18.84
2022-10-26T12:04:57.939Z,18.81
2022-10-26T12:05:58.052Z,18.81
2022-10-26T12:06:57.964Z,18.81
2022-10-26T12:07:59.179Z,18.84
2022-10-26T12:08:57.677Z,18.85
2022-10-26T12:09:57.696Z,18.82
2022-10-26T12:10:57.747Z,18.81
2022-10-26T12:11:57.657Z,18.80
2022-10-26T12:12:57.644Z,18.62
2022-10-26T12:13:57.653Z,18.57
2022-10-26T12:14:57.649Z,18.63
2022-10-26T12:16:03.554Z,18.69
2022-10-26T12:17:00.055Z,18.65
2022-10-26T12:17:57.597Z,18.67
2022-10-26T12:18:57.566Z,18.78
2022-10-26T12:19:57.588Z,18.88
2022-10-26T12:20:57.568Z,18.95
2022-10-26T12:21:57.856Z,19.11
2022-10-26T12:22:57.564Z,19.26
2022-10-26T12:23:57.537Z,19.39
2022-10-26T12:24:58.315Z,19.48
2022-10-26T12:25:58.300Z,19.55
2022-10-26T12:26:57.977Z,19.61
2022-10-26T12:27:57.576Z,19.56
2022-10-26T12:28:57.559Z,19.51
2022-10-26T12:29:57.457Z,19.48
2022-10-26T12:30:57.718Z,19.47
2022-10-26T12:31:57.719Z,19.54
2022-10-26T12:32:57.439Z,19.61
2022-10-26T12:33:57.437Z,19.66
2022-10-26T12:34:57.436Z,19.73
2022-10-26T12:35:57.478Z,19.71
2022-10-26T12:36:57.379Z,19.69
2022-10-26T12:37:57.376Z,19.74
2022-10-26T12:38:57.340Z,19.68
2022-10-26T12:39:57.403Z,19.63
2022-10-26T12:40:57.342Z,19.56
2022-10-26T12:41:57.341Z,19.51
2022-10-26T12:42:57.383Z,19.40
2022-10-26T12:43:57.298Z,19.33
2022-10-26T12:44:57.271Z,19.28
2022-10-26T12:45:57.298Z,19.23
2022-10-26T12:46:57.331Z,19.16
2022-10-26T12:47:57.318Z,19.22
2022-10-26T12:48:57.319Z,19.29
2022-10-26T12:49:57.328Z,19.36
2022-10-26T12:50:57.331Z,19.41
2022-10-26T12:51:57.390Z,19.46
2022-10-26T12:52:57.353Z,19.55
2022-10-26T12:53:57.357Z,19.59
2022-10-26T12:54:57.278Z,19.62
2022-10-26T12:55:57.204Z,19.65
2022-10-26T12:56:57.140Z,19.73
2022-10-26T12:57:57.142Z,19.78
2022-10-26T12:58:59.123Z,19.86
2022-10-26T12:59:57.429Z,19.94
2022-10-26T13:00:57.135Z,19.96
2022-10-26T13:01:57.124Z,19.99
2022-10-26T13:02:57.079Z,20.03
2022-10-26T13:03:57.096Z,20.13
2022-10-26T13:04:57.062Z,20.18
2022-10-26T13:05:57.202Z,20.23
2022-10-26T13:06:57.361Z,20.28
2022-10-26T13:07:57.351Z,20.33
2022-10-26T13:08:58.892Z,20.36
2022-10-26T13:09:58.492Z,20.39
2022-10-26T13:10:56.992Z,20.32